Time;durP1;ratioP1;P1;durP2;ratioP2;P2;SDS_P1;SDS_P2;PMS_P1;PMS_P2;Temp;Humidity;BMP_temperature;BMP_pressure;BME280_temperature;BME280_humidity;BME280_pressure;Samples;Min_cycle;Max_cycle;Signal;HPM_P1;HPM_P2
2022/03/29 07:58:48;;;;;;;73.18;46.53;;;;;;;8.14;85.60;101266.00;5222771;27;1184619;-74
2022/03/29 08:01:20;;;;;;;70.90;45.92;;;;;;;8.06;85.44;101266.47;5256952;28;20374;-74
2022/03/29 08:03:51;;;;;;;70.10;45.38;;;;;;;8.14;85.30;101263.22;5241200;28;20373;-73
2022/03/29 08:06:22;;;;;;;70.90;47.53;;;;;;;8.12;84.90;101262.66;5241988;28;20105;-74
2022/03/29 08:08:54;;;;;;;76.88;46.85;;;;;;;8.04;85.58;101265.91;5240070;28;20079;-74
2022/03/29 08:11:26;;;;;;;70.72;43.53;;;;;;;8.21;85.12;101266.59;5239034;28;20018;-74
2022/03/29 08:13:57;;;;;;;70.43;44.92;;;;;;;8.25;84.93;101256.66;5240370;28;20112;-74
2022/03/29 08:16:29;;;;;;;73.75;46.63;;;;;;;8.19;84.92;101266.03;5239274;28;20522;-75
2022/03/29 08:19:01;;;;;;;72.15;49.83;;;;;;;8.19;85.35;101254.16;5242064;28;20052;-74
2022/03/29 08:21:49;;;;;;;78.60;48.58;;;;;;;8.19;85.19;101246.69;5238065;28;20397;-74
2022/03/29 08:24:23;;;;;;;70.47;46.30;;;;;;;8.31;84.62;101240.13;5241799;28;20110;-74
2022/03/29 08:26:55;;;;;;;73.55;46.22;;;;;;;8.40;84.29;101238.59;5241935;28;20064;-75
2022/03/29 08:29:26;;;;;;;70.97;46.15;;;;;;;8.44;84.63;101242.50;5223037;28;20528;-73
2022/03/29 08:32:00;;;;;;;74.93;47.53;;;;;;;8.60;83.77;101240.66;5240665;28;20026;-75
2022/03/29 08:34:31;;;;;;;72.53;46.17;;;;;;;8.60;83.22;101244.25;5243012;28;20037;-74
2022/03/29 08:37:05;;;;;;;67.32;43.83;;;;;;;8.76;83.38;101247.09;5238186;28;20034;-80
2022/03/29 08:39:37;;;;;;;75.32;46.83;;;;;;;8.53;83.67;101243.66;5240640;28;20034;-78
2022/03/29 08:42:10;;;;;;;56.40;38.28;;;;;;;8.95;85.63;101237.28;5222694;28;20116;-78
2022/03/29 08:44:42;;;;;;;60.90;38.25;;;;;;;9.08;84.83;101241.47;5219575;28;20022;-77
2022/03/29 08:47:15;;;;;;;70.95;45.53;;;;;;;9.09;83.09;101232.88;5219447;28;20206;-77
2022/03/29 08:49:49;;;;;;;67.72;44.92;;;;;;;9.12;82.37;101248.13;5219838;28;20076;-76
2022/03/29 08:52:21;;;;;;;58.65;39.90;;;;;;;9.28;83.48;101246.22;5237889;28;20105;-78
2022/03/29 08:54:52;;;;;;;60.20;43.15;;;;;;;9.26;83.48;101248.47;5237672;28;20129;-78
2022/03/29 08:57:23;;;;;;;69.10;42.67;;;;;;;9.14;82.24;101245.91;5236735;28;20396;-79
2022/03/29 08:59:55;;;;;;;66.03;43.00;;;;;;;9.10;82.30;101236.47;5237794;28;20381;-78
2022/03/29 09:02:33;;;;;;;65.82;45.42;;;;;;;9.16;82.13;101237.34;5237294;28;20050;-79
2022/03/29 09:05:08;;;;;;;81.68;50.58;;;;;;;8.92;82.00;101243.31;5236633;28;20026;-77
2022/03/29 09:07:55;;;;;;;71.50;48.55;;;;;;;8.87;82.18;101246.91;5237770;28;20026;-77
2022/03/29 09:10:40;;;;;;;;;;;;;;;9.20;81.61;101235.69;5223128;28;20022;-77
2022/03/29 09:13:16;;;;;;;77.97;49.70;;;;;;;9.09;81.95;101234.81;5223579;28;19917;-77
2022/03/29 09:15:49;;;;;;;77.70;46.63;;;;;;;8.96;81.82;101238.91;5224028;28;20026;-78
2022/03/29 09:18:21;;;;;;;70.88;47.97;;;;;;;8.99;81.82;101227.31;5223665;28;20084;-77
2022/03/29 09:21:13;;;;;;;73.10;47.42;;;;;;;9.22;81.08;101234.31;5216467;28;20121;-75
2022/03/29 09:24:08;;;;;;;71.43;46.30;;;;;;;9.07;82.31;101226.78;5221516;28;20440;-78
2022/03/29 09:26:45;;;;;;;76.65;48.15;;;;;;;8.98;82.34;101231.19;5215852;28;20474;-77
2022/03/29 09:29:16;;;;;;;75.53;48.42;;;;;;;8.95;82.37;101228.97;5222009;28;20038;-78
2022/03/29 09:32:03;;;;;;;76.32;47.47;;;;;;;8.99;82.68;101237.53;5223527;28;20508;-77
2022/03/29 09:34:34;;;;;;;78.82;49.03;;;;;;;9.02;82.63;101234.25;5223189;28;20466;-76
2022/03/29 09:37:06;;;;;;;106.70;71.20;;;;;;;9.03;82.00;101228.44;5223814;28;20054;-77
2022/03/29 09:39:42;;;;;;;91.00;60.65;;;;;;;9.10;82.02;101229.03;5223764;28;20025;-77
2022/03/29 09:42:15;;;;;;;77.68;48.83;;;;;;;9.03;81.94;101222.91;5228154;28;20135;-77
2022/03/29 09:44:49;;;;;;;79.85;49.17;;;;;;;9.09;82.37;101221.81;5223477;28;20120;-77
2022/03/29 09:47:22;;;;;;;79.10;48.58;;;;;;;9.10;81.61;101217.97;5218398;28;20029;-77
2022/03/29 09:50:02;;;;;;;79.50;52.25;;;;;;;9.11;82.33;101208.56;5222913;28;20109;-76
2022/03/29 09:52:39;;;;;;;90.07;56.20;;;;;;;9.04;81.94;101207.13;5223268;28;20117;-77
2022/03/29 09:55:20;;;;;;;92.85;56.95;;;;;;;9.14;82.52;101204.41;5223256;28;20037;-79
2022/03/29 09:57:54;;;;;;;92.40;54.58;;;;;;;9.43;82.80;101212.25;5229973;28;20077;-78
2022/03/29 10:00:28;;;;;;;92.22;51.88;;;;;;;9.61;83.68;101208.13;5239584;28;20030;-77
2022/03/29 10:03:02;;;;;;;104.10;57.17;;;;;;;9.41;81.26;101206.13;5221822;28;20042;-76
2022/03/29 10:05:35;;;;;;;99.35;59.25;;;;;;;9.16;81.19;101198.63;5224273;28;20087;-77
2022/03/29 10:11:02;;;;;;;98.57;57.03;;;;;;;9.17;81.20;101189.19;5222575;28;20033;-77
2022/03/29 10:13:34;;;;;;;91.82;57.13;;;;;;;9.12;81.28;101179.75;5221954;28;20030;-78
2022/03/29 10:16:10;;;;;;;94.68;56.13;;;;;;;9.16;81.84;101188.38;5223729;28;20018;-78
2022/03/29 10:18:43;;;;;;;87.13;53.75;;;;;;;9.08;81.51;101184.19;5222406;28;20022;-78
2022/03/29 10:21:16;;;;;;;75.88;50.47;;;;;;;9.06;81.85;101178.09;5219235;28;22143;-77
2022/03/29 10:23:49;;;;;;;74.07;47.00;;;;;;;9.13;82.13;101175.91;5219970;28;20030;-77
2022/03/29 10:26:24;;;;;;;69.85;46.30;;;;;;;9.25;81.89;101174.81;5220503;28;20030;-77
2022/03/29 10:28:56;;;;;;;64.97;43.17;;;;;;;9.48;82.27;101176.25;5221422;28;20018;-75
2022/03/29 10:31:41;;;;;;;78.75;54.45;;;;;;;9.47;80.85;101180.16;5217145;28;20041;-75
2022/03/29 10:34:24;;;;;;;60.40;42.63;;;;;;;9.68;80.61;101178.22;5204942;28;20441;-75
2022/03/29 10:37:14;;;;;;;63.47;44.10;;;;;;;9.58;80.08;101179.88;5220977;28;20153;-76
2022/03/29 10:39:54;;;;;;;60.42;41.85;;;;;;;9.63;80.36;101176.28;5221641;28;20065;-74
2022/03/29 10:42:36;;;;;;;57.22;41.65;;;;;;;9.49;80.47;101173.22;5221488;28;20474;-76
2022/03/29 10:45:15;;;;;;;56.38;40.95;;;;;;;9.49;80.21;101167.69;5222052;28;20029;-75
2022/03/29 10:48:09;;;;;;;63.75;45.63;;;;;;;9.61;80.25;101163.81;5221124;28;20167;-75
2022/03/29 10:50:53;;;;;;;56.88;41.83;;;;;;;9.64;80.48;101166.03;5220409;28;20038;-75
2022/03/29 10:53:28;;;;;;;63.15;45.85;;;;;;;9.71;80.27;101159.09;5220654;28;20033;-72
2022/03/29 10:56:15;;;;;;;54.40;39.67;;;;;;;9.58;80.09;101157.72;5220747;28;20121;-73
2022/03/29 10:59:01;;;;;;;51.53;39.80;;;;;;;9.65;80.67;101154.69;5231696;28;20057;-72
2022/03/29 11:01:35;;;;;;;47.03;36.90;;;;;;;9.75;79.51;101151.91;5221432;28;20026;-72
2022/03/29 11:04:13;;;;;;;54.15;39.13;;;;;;;9.73;79.92;101153.31;5220488;28;20033;-72
2022/03/29 11:07:14;;;;;;;54.25;39.35;;;;;;;9.95;79.32;101145.56;5221680;28;20057;-72
2022/03/29 11:09:46;;;;;;;53.92;39.42;;;;;;;9.67;79.62;101132.28;5202962;28;20132;-72
2022/03/29 11:12:49;;;;;;;48.92;37.88;;;;;;;9.87;80.40;101140.56;5220410;28;20100;-72
2022/03/29 11:15:47;;;;;;;54.05;36.80;;;;;;;9.82;79.93;101134.19;5188408;28;20117;-72
2022/03/29 11:18:30;;;;;;;50.72;36.55;;;;;;;9.88;79.23;101128.38;5209597;28;20076;-72
2022/03/29 11:21:02;;;;;;;44.72;34.78;;;;;;;9.75;80.03;101123.41;5220676;28;20384;-73
2022/03/29 11:23:40;;;;;;;46.15;34.88;;;;;;;10.03;79.73;101127.53;5221113;28;20026;-73
2022/03/29 11:26:13;;;;;;;49.15;36.40;;;;;;;10.10;79.04;101135.53;5219663;28;20021;-72
2022/03/29 11:28:47;;;;;;;48.42;35.88;;;;;;;10.08;77.84;101133.06;5220522;28;20030;-72
2022/03/29 11:31:20;;;;;;;46.05;35.53;;;;;;;10.25;77.67;101127.19;5205719;28;20018;-72
2022/03/29 11:33:55;;;;;;;92.68;74.97;;;;;;;10.80;79.51;101125.38;5220559;28;20025;-68
2022/03/29 11:36:27;;;;;;;61.55;45.97;;;;;;;11.05;78.24;101121.66;5220914;28;20487;-69
2022/03/29 11:38:58;;;;;;;43.60;35.00;;;;;;;11.36;77.34;101117.88;5214435;28;20026;-69
2022/03/29 11:41:32;;;;;;;44.78;33.90;;;;;;;11.07;75.51;101108.34;5214282;28;20017;-69
2022/03/29 11:44:06;;;;;;;49.38;36.50;;;;;;;11.28;75.29;101106.25;5220224;28;20037;-70
2022/03/29 11:46:49;;;;;;;46.42;35.35;;;;;;;11.37;74.97;101098.13;5220195;28;20438;-72
2022/03/29 11:49:26;;;;;;;59.58;35.78;;;;;;;11.56;74.18;101091.91;5221183;28;20133;-72
2022/03/29 11:52:06;;;;;;;48.97;36.55;;;;;;;11.67;74.27;101085.94;5220059;28;20109;-73
2022/03/29 11:54:43;;;;;;;48.22;37.50;;;;;;;11.65;72.32;101082.63;5220616;28;20030;-76
2022/03/29 11:57:30;;;;;;;48.45;38.80;;;;;;;11.75;72.35;101076.97;5220574;28;20065;-77
2022/03/29 12:00:01;;;;;;;49.72;38.35;;;;;;;11.75;71.21;101076.16;5219853;28;20026;-76
2022/03/29 12:02:41;;;;;;;47.80;38.40;;;;;;;11.92;70.94;101082.13;5221066;28;20041;-76
2022/03/29 12:05:28;;;;;;;51.13;38.90;;;;;;;11.87;70.60;101068.28;5220688;28;20037;-76
2022/03/29 12:08:04;;;;;;;43.42;36.30;;;;;;;11.71;70.75;101073.13;5219924;28;20057;-75
2022/03/29 12:10:35;;;;;;;45.83;36.90;;;;;;;11.86;70.39;101061.09;5221647;28;20030;-75
2022/03/29 12:13:17;;;;;;;46.15;35.03;;;;;;;11.92;70.09;101061.88;5222035;28;20072;-79
2022/03/29 12:15:48;;;;;;;38.72;32.47;;;;;;;11.94;69.13;101063.22;5221819;28;20033;-79
2022/03/29 12:18:45;;;;;;;36.97;32.22;;;;;;;12.02;69.96;101058.16;5221163;28;20026;-76
2022/03/29 12:21:20;;;;;;;37.40;32.30;;;;;;;11.91;69.75;101049.94;5220149;28;20209;-70
2022/03/29 12:24:21;;;;;;;40.85;32.17;;;;;;;12.05;68.83;101052.81;5220560;28;20488;-76
2022/03/29 12:27:01;;;;;;;39.88;32.05;;;;;;;11.99;69.20;101042.91;5203964;28;20478;-76
2022/03/29 12:30:01;;;;;;;33.72;30.00;;;;;;;12.12;68.60;101042.19;5205077;28;20069;-77
2022/03/29 12:32:37;;;;;;;43.83;34.83;;;;;;;12.13;69.03;101032.72;5200553;28;20475;-70
2022/03/29 12:35:14;;;;;;;;;;;;;;;12.49;72.48;101029.50;5213413;28;20381;-69
2022/03/29 12:37:47;;;;;;;27.13;22.05;;;;;;;12.90;71.16;101020.56;5220236;28;19960;-69
2022/03/29 12:40:19;;;;;;;33.30;25.35;;;;;;;12.95;67.86;101025.25;5219797;28;20022;-70
2022/03/29 12:43:09;;;;;;;33.42;26.70;;;;;;;13.02;67.11;101009.81;5218788;28;20022;-72
2022/03/29 12:45:40;;;;;;;28.13;24.67;;;;;;;13.23;66.38;101020.63;5223730;28;20034;-70
2022/03/29 12:48:12;;;;;;;30.58;25.73;;;;;;;13.29;65.86;101008.28;5213960;28;20071;-72
2022/03/29 12:50:43;;;;;;;31.35;26.25;;;;;;;13.25;65.15;100998.88;5223591;28;20489;-70
2022/03/29 12:53:15;;;;;;;33.55;27.05;;;;;;;13.15;63.33;101007.41;5221401;28;20045;-69
2022/03/29 12:55:55;;;;;;;47.55;39.80;;;;;;;13.27;64.37;100988.28;5202638;28;20049;-69
2022/03/29 12:58:31;;;;;;;34.28;28.38;;;;;;;13.18;62.16;100981.72;5216640;28;20078;-70
2022/03/29 13:01:04;;;;;;;34.90;26.70;;;;;;;13.12;61.75;100982.94;5222950;28;20045;-74
2022/03/29 13:03:37;;;;;;;30.55;26.05;;;;;;;13.18;61.53;100978.94;5223101;28;20465;-74
2022/03/29 13:06:08;;;;;;;28.92;25.60;;;;;;;13.09;60.98;100973.25;5223281;28;20376;-75
2022/03/29 13:08:40;;;;;;;28.88;24.00;;;;;;;13.42;62.22;100964.91;5223285;28;20026;-75
2022/03/29 13:11:16;;;;;;;29.52;25.50;;;;;;;13.46;60.15;100966.78;5222532;28;20026;-74
2022/03/29 13:14:05;;;;;;;31.23;25.92;;;;;;;13.50;59.38;100958.66;5210302;28;20038;-74
2022/03/29 13:16:52;;;;;;;30.77;25.20;;;;;;;13.80;60.75;100960.00;5202632;28;20501;-76
2022/03/29 13:19:24;;;;;;;33.63;26.83;;;;;;;13.83;59.37;100951.03;5203191;28;20021;-76
2022/03/29 13:21:59;;;;;;;28.98;24.83;;;;;;;13.84;56.38;100952.69;5218945;28;20424;-76
2022/03/29 13:24:39;;;;;;;33.22;25.48;;;;;;;13.90;56.67;100948.66;5221488;28;20048;-74
2022/03/29 13:27:10;;;;;;;32.72;25.15;;;;;;;14.20;57.90;100943.59;5213892;28;20018;-71
2022/03/29 13:29:42;;;;;;;38.53;30.85;;;;;;;14.39;55.12;100934.25;5221153;28;20036;-73
2022/03/29 13:32:15;;;;;;;42.90;36.83;;;;;;;14.39;56.04;100931.47;5222387;28;20024;-76
2022/03/29 13:34:47;;;;;;;28.00;23.27;;;;;;;14.48;55.09;100932.38;5222946;28;20030;-77
2022/03/29 13:37:18;;;;;;;32.63;23.00;;;;;;;14.67;52.01;100924.69;5222570;28;20477;-72
2022/03/29 13:39:49;;;;;;;28.33;23.60;;;;;;;14.59;52.01;100925.44;5222001;28;20476;-71
2022/03/29 13:42:20;;;;;;;27.15;22.45;;;;;;;14.71;51.97;100919.31;5221653;28;20018;-71
2022/03/29 13:44:52;;;;;;;29.92;21.92;;;;;;;14.70;52.93;100915.72;5221666;28;20068;-71
2022/03/29 13:47:23;;;;;;;28.75;23.52;;;;;;;14.67;50.98;100907.94;5219025;28;20080;-70
2022/03/29 13:49:54;;;;;;;27.85;23.50;;;;;;;14.92;51.03;100902.88;5211797;28;20053;-70
2022/03/29 13:52:26;;;;;;;23.08;18.48;;;;;;;15.02;47.38;100899.00;5221360;28;20026;-71
2022/03/29 13:54:57;;;;;;;28.52;21.15;;;;;;;14.81;49.22;100907.91;5220001;28;20029;-72
2022/03/29 13:57:28;;;;;;;27.17;21.98;;;;;;;14.95;49.17;100902.25;5219598;28;20037;-71
2022/03/29 14:00:04;;;;;;;36.42;26.15;;;;;;;14.86;48.32;100899.41;5215977;28;20430;-70
2022/03/29 14:02:35;;;;;;;29.45;23.42;;;;;;;15.02;49.09;100899.84;5221689;28;20056;-68
2022/03/29 14:05:07;;;;;;;31.75;22.70;;;;;;;15.10;48.80;100893.47;5222472;28;20026;-70
2022/03/29 14:07:40;;;;;;;28.63;22.08;;;;;;;15.22;48.11;100884.53;5212598;28;20034;-70
2022/03/29 14:10:11;;;;;;;27.92;21.63;;;;;;;15.29;47.46;100882.09;5202144;28;20073;-67
2022/03/29 14:12:42;;;;;;;23.23;20.48;;;;;;;15.31;47.01;100884.56;5206469;28;20402;-70
2022/03/29 14:15:13;;;;;;;28.38;22.42;;;;;;;15.16;47.38;100881.03;5211463;28;20030;-70
2022/03/29 14:17:46;;;;;;;25.45;20.85;;;;;;;15.07;48.56;100882.94;5221465;28;20041;-70
2022/03/29 14:20:18;;;;;;;30.05;21.80;;;;;;;14.99;52.05;100880.94;5206847;28;20485;-71
2022/03/29 14:22:49;;;;;;;31.17;25.77;;;;;;;14.76;50.85;100872.56;5217868;28;20053;-70
2022/03/29 14:25:22;;;;;;;34.95;24.77;;;;;;;14.70;49.91;100875.78;5220929;28;20037;-70
2022/03/29 14:27:54;;;;;;;34.97;23.92;;;;;;;14.61;49.85;100870.13;5221281;28;20022;-71
2022/03/29 14:30:25;;;;;;;27.63;21.65;;;;;;;14.68;52.22;100864.94;5222162;28;20029;-70
2022/03/29 14:32:57;;;;;;;34.38;24.98;;;;;;;14.68;49.97;100856.56;5220687;28;20037;-71
2022/03/29 14:35:28;;;;;;;34.67;26.02;;;;;;;14.50;49.93;100846.41;5220415;28;20026;-71
2022/03/29 14:37:59;;;;;;;33.05;23.90;;;;;;;14.61;51.59;100847.81;5221599;28;20065;-73
2022/03/29 14:40:31;;;;;;;33.10;26.30;;;;;;;14.50;50.52;100851.97;5220988;28;20034;-68
2022/03/29 14:43:02;;;;;;;28.80;23.10;;;;;;;14.67;50.83;100843.75;5220812;28;20021;-72
2022/03/29 14:45:34;;;;;;;29.42;23.70;;;;;;;14.63;49.49;100842.75;5221859;28;20032;-71
2022/03/29 14:48:05;;;;;;;40.83;26.73;;;;;;;14.65;49.27;100839.63;5220286;28;20055;-73
2022/03/29 14:50:37;;;;;;;58.63;46.42;;;;;;;14.71;49.86;100839.19;5220954;28;20060;-70
2022/03/29 14:53:09;;;;;;;32.58;24.85;;;;;;;14.57;48.89;100833.69;5220842;28;20032;-71
2022/03/29 14:55:40;;;;;;;34.15;22.38;;;;;;;14.71;47.91;100830.81;5221016;28;20022;-71
2022/03/29 14:58:11;;;;;;;32.60;23.27;;;;;;;14.70;49.65;100823.59;5225261;28;20041;-70
2022/03/29 15:00:45;;;;;;;34.72;27.60;;;;;;;14.70;49.17;100818.00;5221800;28;20033;-71
2022/03/29 15:03:16;;;;;;;35.78;25.83;;;;;;;14.71;48.40;100830.81;5219752;28;20029;-73
2022/03/29 15:05:47;;;;;;;43.03;36.50;;;;;;;14.81;48.87;100823.31;5217956;28;20026;-71
2022/03/29 15:08:19;;;;;;;35.80;26.83;;;;;;;14.72;48.15;100814.88;5210203;28;20346;-72
2022/03/29 15:10:50;;;;;;;29.38;23.73;;;;;;;14.58;47.42;100812.16;5219719;28;20108;-70
2022/03/29 15:13:21;;;;;;;28.75;24.35;;;;;;;14.56;47.90;100817.25;5220278;28;20037;-71
2022/03/29 15:15:53;;;;;;;33.30;24.15;;;;;;;14.66;47.80;100821.75;5220042;28;20105;-71
2022/03/29 15:18:24;;;;;;;30.98;23.85;;;;;;;14.60;48.27;100814.63;5220639;28;20034;-72
2022/03/29 15:20:55;;;;;;;30.27;24.08;;;;;;;14.62;48.71;100810.38;5220646;28;20030;-70
2022/03/29 15:23:27;;;;;;;30.52;23.52;;;;;;;14.70;48.15;100811.56;5217355;28;20457;-71
2022/03/29 15:25:58;;;;;;;32.28;23.42;;;;;;;14.64;47.87;100808.09;5221010;28;20057;-71
2022/03/29 15:28:29;;;;;;;32.50;21.92;;;;;;;14.60;46.94;100801.53;5221017;28;20105;-70
2022/03/29 15:31:01;;;;;;;27.48;21.25;;;;;;;14.61;46.41;100797.56;5220226;28;20029;-71
2022/03/29 15:33:32;;;;;;;28.00;19.40;;;;;;;14.68;49.62;100800.75;5220728;28;20042;-71
2022/03/29 15:36:04;;;;;;;23.67;19.08;;;;;;;14.64;48.77;100799.72;5221201;28;20494;-70
2022/03/29 15:38:35;;;;;;;29.48;20.52;;;;;;;14.67;46.92;100795.47;5219697;28;20068;-70
2022/03/29 15:41:06;;;;;;;24.95;20.70;;;;;;;14.57;46.55;100788.19;5221078;28;20041;-71
2022/03/29 15:43:38;;;;;;;24.33;18.50;;;;;;;14.56;45.53;100786.53;5220841;28;20052;-72
2022/03/29 15:46:10;;;;;;;22.10;17.83;;;;;;;14.60;46.63;100784.78;5220190;28;20229;-72
2022/03/29 15:48:41;;;;;;;18.58;16.40;;;;;;;14.56;46.82;100786.53;5220349;28;20152;-72
2022/03/29 15:51:12;;;;;;;26.08;18.98;;;;;;;14.41;45.33;100782.13;5220062;28;20143;-71
2022/03/29 15:53:44;;;;;;;20.92;17.25;;;;;;;14.42;44.53;100783.81;5220551;28;20351;-71
2022/03/29 15:56:15;;;;;;;23.80;19.52;;;;;;;14.41;44.81;100775.75;5220599;28;20026;-71
2022/03/29 15:58:46;;;;;;;23.75;19.77;;;;;;;14.46;44.65;100778.41;5218913;28;20393;-72
2022/03/29 16:01:18;;;;;;;60.92;51.88;;;;;;;14.50;47.32;100773.84;5220688;28;20504;-70
2022/03/29 16:03:49;;;;;;;23.70;19.90;;;;;;;14.48;45.91;100774.16;5220463;28;20022;-71
2022/03/29 16:06:21;;;;;;;28.38;23.98;;;;;;;14.54;48.33;100769.28;5219770;28;20377;-70
2022/03/29 16:08:53;;;;;;;23.55;19.95;;;;;;;14.43;45.88;100774.28;5218947;28;20250;-71
2022/03/29 16:11:24;;;;;;;23.05;18.33;;;;;;;14.55;45.68;100770.94;5220621;28;20592;-71
2022/03/29 16:13:57;;;;;;;23.90;17.08;;;;;;;14.65;45.44;100776.28;5219665;28;20125;-71
2022/03/29 16:16:28;;;;;;;18.48;15.32;;;;;;;14.66;46.63;100765.94;5216274;28;20034;-70
2022/03/29 16:18:59;;;;;;;20.67;16.17;;;;;;;14.66;45.19;100769.53;5218970;28;20052;-71
2022/03/29 16:21:31;;;;;;;21.10;18.02;;;;;;;14.79;44.54;100765.81;5203830;28;20023;-69
2022/03/29 16:24:04;;;;;;;26.85;20.73;;;;;;;14.83;44.90;100759.59;5220102;28;20037;-70
2022/03/29 16:26:35;;;;;;;21.13;18.48;;;;;;;14.70;45.13;100764.13;5223372;28;20080;-71
2022/03/29 16:29:10;;;;;;;25.52;20.35;;;;;;;14.52;45.48;100754.78;5224391;28;20453;-70
2022/03/29 16:31:41;;;;;;;27.33;19.98;;;;;;;14.55;45.77;100755.03;5224622;28;20433;-70
2022/03/29 16:34:14;;;;;;;23.27;18.75;;;;;;;14.67;47.75;100756.41;5223476;28;20026;-70
2022/03/29 16:36:46;;;;;;;26.63;19.48;;;;;;;14.49;48.56;100747.88;5224238;28;20115;-70
2022/03/29 16:39:17;;;;;;;27.48;19.02;;;;;;;14.57;48.33;100746.31;5223280;28;20046;-70
2022/03/29 16:41:49;;;;;;;23.85;19.65;;;;;;;14.43;47.19;100745.56;5223559;28;20396;-71
2022/03/29 16:44:21;;;;;;;25.85;20.00;;;;;;;14.46;48.61;100742.13;5203839;28;20034;-71
2022/03/29 16:46:53;;;;;;;23.02;18.08;;;;;;;14.52;49.65;100746.41;5221772;28;20032;-74
2022/03/29 16:49:24;;;;;;;26.48;21.23;;;;;;;14.43;49.19;100735.22;5222888;28;20042;-70
2022/03/29 16:51:57;;;;;;;32.83;24.63;;;;;;;14.39;48.52;100736.16;5206057;28;20029;-75
2022/03/29 16:54:28;;;;;;;29.55;24.63;;;;;;;14.29;48.71;100735.31;5223147;28;20100;-75
2022/03/29 16:57:00;;;;;;;29.70;24.05;;;;;;;14.22;48.66;100734.91;5209872;28;20061;-75
2022/03/29 16:59:33;;;;;;;30.88;25.38;;;;;;;14.11;49.37;100733.50;5233235;28;20025;-75
2022/03/29 17:02:05;;;;;;;33.90;27.60;;;;;;;14.01;50.40;100744.91;5223067;28;20699;-75
2022/03/29 17:04:37;;;;;;;33.92;26.42;;;;;;;14.10;50.49;100740.22;5223650;28;20057;-76
2022/03/29 17:07:08;;;;;;;34.08;27.13;;;;;;;14.02;50.71;100735.41;5223045;28;20073;-75
2022/03/29 17:09:39;;;;;;;39.35;27.92;;;;;;;13.95;51.00;100726.66;5221885;28;20048;-74
2022/03/29 17:12:11;;;;;;;33.60;24.73;;;;;;;14.00;51.66;100732.09;5223650;28;20479;-75
2022/03/29 17:14:42;;;;;;;36.75;27.05;;;;;;;14.00;51.51;100726.53;5203648;28;20027;-75
2022/03/29 17:17:14;;;;;;;35.65;25.80;;;;;;;13.95;50.56;100729.44;5216910;28;20037;-75
2022/03/29 17:19:47;;;;;;;34.20;26.85;;;;;;;13.85;50.81;100727.72;5222764;28;20041;-75
2022/03/29 17:22:18;;;;;;;33.00;25.63;;;;;;;13.80;51.18;100730.63;5223717;28;20469;-74
2022/03/29 17:24:50;;;;;;;65.55;55.60;;;;;;;13.79;50.51;100732.59;5220174;28;20026;-74
2022/03/29 17:27:23;;;;;;;39.17;27.63;;;;;;;13.78;51.41;100730.09;5222994;28;20026;-74
2022/03/29 17:29:57;;;;;;;30.63;24.75;;;;;;;13.77;51.08;100729.28;5221432;28;20030;-75
